Time;durP1;ratioP1;P1;durP2;ratioP2;P2;SDS_P1;SDS_P2;PMS_P1;PMS_P2;Temp;Humidity;BMP_temperature;BMP_pressure;BME280_temperature;BME280_humidity;BME280_pressure;Samples;Min_cycle;Max_cycle;Signal;HPM_P1;HPM_P2
2022/10/15 00:00:08;;;;;;;9.20;3.70;;;;;;;4.56;77.99;99424.29;102327;1292;75216;-25
2022/10/15 00:02:35;;;;;;;4.80;2.80;;;;;;;4.36;78.59;99421.66;102195;1299;62676;-25
2022/10/15 00:05:03;;;;;;;5.80;3.00;;;;;;;4.75;79.16;99427.79;102335;1299;62827;-25
2022/10/15 00:07:30;;;;;;;7.50;4.20;;;;;;;5.33;77.92;99429.80;102338;1294;76495;-25
2022/10/15 00:09:57;;;;;;;7.10;3.60;;;;;;;5.41;77.13;99427.48;102339;1299;74850;-25
2022/10/15 00:12:24;;;;;;;9.20;4.50;;;;;;;5.22;76.86;99428.46;102163;1292;72996;-25
2022/10/15 00:14:51;;;;;;;10.90;4.60;;;;;;;4.97;77.14;99422.89;102064;1294;63138;-24
2022/10/15 00:17:18;;;;;;;8.70;4.60;;;;;;;4.73;78.03;99425.01;102255;1299;61820;-24
2022/10/15 00:19:45;;;;;;;8.50;4.00;;;;;;;4.50;78.63;99423.37;102324;1302;76180;-25
2022/10/15 00:22:12;;;;;;;6.30;3.20;;;;;;;4.30;78.98;99423.83;102333;1294;76854;-25
2022/10/15 00:24:39;;;;;;;9.80;2.80;;;;;;;4.69;79.03;99421.55;102303;1298;73474;-24
2022/10/15 00:27:06;;;;;;;7.80;3.40;;;;;;;5.27;77.96;99420.99;102302;1291;61037;-24
2022/10/15 00:29:33;;;;;;;7.80;3.20;;;;;;;5.34;77.50;99420.08;102116;1294;61167;-25
2022/10/15 00:32:00;;;;;;;6.60;3.60;;;;;;;5.20;77.67;99417.08;102329;1291;76432;-25
2022/10/15 00:34:29;;;;;;;8.50;4.20;;;;;;;4.96;77.93;99412.80;102353;1294;75433;-24
2022/10/15 00:36:57;;;;;;;7.70;3.90;;;;;;;4.70;78.33;99412.20;102332;1299;74077;-25
2022/10/15 00:39:24;;;;;;;7.70;3.70;;;;;;;4.47;78.77;99404.95;102190;1299;61792;-24
2022/10/15 00:41:51;;;;;;;6.10;2.60;;;;;;;4.29;79.39;99402.75;102281;1291;61133;-24
2022/10/15 00:44:25;;;;;;;8.10;3.00;;;;;;;4.72;79.64;99403.85;102360;1298;74315;-25
2022/10/15 00:47:06;;;;;;;7.20;3.30;;;;;;;5.34;78.47;99404.27;102095;1294;76518;-25
2022/10/15 00:49:35;;;;;;;8.30;3.60;;;;;;;5.39;77.65;99404.15;102108;1301;75009;-25
2022/10/15 00:52:09;;;;;;;9.80;3.90;;;;;;;5.19;77.50;99402.66;102056;1299;62624;-25
2022/10/15 00:54:36;;;;;;;;;;;;;;;4.91;78.04;99404.77;102250;1302;62799;-24
2022/10/15 00:57:04;;;;;;;7.00;3.50;;;;;;;4.65;78.39;99407.51;102028;1299;76688;-25
2022/10/15 00:59:32;;;;;;;4.80;3.10;;;;;;;4.39;78.65;99408.96;102053;1303;75838;-25
2022/10/15 01:01:59;;;;;;;9.00;2.50;;;;;;;4.16;79.21;99409.91;102124;1301;73950;-25
2022/10/15 01:04:27;;;;;;;6.10;2.70;;;;;;;4.54;79.45;99412.36;102067;1302;61913;-24
2022/10/15 01:06:54;;;;;;;6.30;3.80;;;;;;;5.10;78.29;99416.16;102274;1298;61840;-24
2022/10/15 01:09:20;;;;;;;8.00;2.60;;;;;;;5.19;77.35;99413.13;102214;1299;76238;-24
2022/10/15 01:11:49;;;;;;;9.10;3.40;;;;;;;4.99;77.19;99415.23;102039;1301;74501;-25
2022/10/15 01:14:38;;;;;;;6.90;3.70;;;;;;;4.72;77.64;99413.86;102033;1294;75455;-25
2022/10/15 01:17:15;;;;;;;6.00;3.10;;;;;;;4.42;78.24;99409.68;102250;1300;61829;-25
2022/10/15 01:20:07;;;;;;;7.00;3.60;;;;;;;4.15;78.57;99410.65;102343;1299;61166;-25
2022/10/15 01:23:06;;;;;;;7.40;2.20;;;;;;;3.97;79.40;99414.30;102320;1292;76373;-25
2022/10/15 01:26:01;;;;;;;4.80;2.40;;;;;;;4.74;79.63;99412.86;102162;1301;74493;-24
2022/10/15 01:28:50;;;;;;;7.50;3.40;;;;;;;5.31;78.09;99412.15;102128;1301;75184;-25
2022/10/15 01:31:28;;;;;;;4.80;2.90;;;;;;;5.27;78.00;99405.86;102296;1291;62861;-25
2022/10/15 01:34:14;;;;;;;5.80;3.70;;;;;;;5.03;77.92;99404.66;102145;1293;62999;-25
2022/10/15 01:36:56;;;;;;;9.00;4.30;;;;;;;4.74;78.25;99404.80;102311;1293;76359;-25
2022/10/15 01:39:29;;;;;;;5.90;4.10;;;;;;;4.47;78.53;99405.31;102068;1294;75731;-25
2022/10/15 01:42:00;;;;;;;6.80;3.80;;;;;;;4.22;78.63;99403.27;101937;1297;75421;-25
2022/10/15 01:44:33;;;;;;;4.70;2.50;;;;;;;4.04;79.10;99409.98;102044;1299;62705;-25
2022/10/15 01:47:16;;;;;;;8.70;3.80;;;;;;;4.57;78.90;99409.59;102065;1301;62837;-26
2022/10/15 01:49:44;;;;;;;8.30;3.60;;;;;;;5.16;77.55;99411.58;102040;1301;75414;-25
2022/10/15 01:52:17;;;;;;;7.60;4.30;;;;;;;5.23;76.84;99411.70;102086;1305;75616;-25
2022/10/15 01:54:47;;;;;;;4.90;3.30;;;;;;;5.07;77.00;99410.00;101950;1304;75099;-25
2022/10/15 01:57:15;;;;;;;6.40;3.70;;;;;;;4.87;77.80;99409.27;102005;1294;62880;-25
2022/10/15 01:59:42;;;;;;;6.80;4.20;;;;;;;4.70;78.43;99411.06;102341;1299;61749;-25
2022/10/15 02:02:09;;;;;;;6.00;3.60;;;;;;;4.51;78.94;99410.07;101981;1297;76368;-25
2022/10/15 02:04:38;;;;;;;7.80;3.00;;;;;;;4.38;79.50;99409.02;102180;1294;76547;-25
2022/10/15 02:07:29;;;;;;;4.80;3.10;;;;;;;4.82;79.49;99411.59;102276;1299;75275;-25
2022/10/15 02:10:00;;;;;;;6.40;3.80;;;;;;;5.47;78.19;99413.02;101942;1297;62869;-25
2022/10/15 02:12:36;;;;;;;7.10;3.30;;;;;;;5.49;77.39;99411.38;102086;1299;61515;-25
2022/10/15 02:15:17;;;;;;;6.70;3.80;;;;;;;5.26;77.45;99410.50;102207;1301;75227;-25
2022/10/15 02:18:08;;;;;;;8.30;4.60;;;;;;;4.98;77.94;99408.74;102190;1292;77265;-25
2022/10/15 02:20:53;;;;;;;7.60;3.80;;;;;;;4.67;78.60;99408.60;102372;1292;75348;-25
2022/10/15 02:23:52;;;;;;;7.10;4.10;;;;;;;4.38;79.20;99405.38;102162;1291;61129;-25
2022/10/15 02:26:25;;;;;;;5.60;3.00;;;;;;;4.21;79.85;99405.41;102207;1299;62145;-25
2022/10/15 02:28:54;;;;;;;5.10;3.00;;;;;;;4.86;79.27;99405.71;102093;1299;76362;-25
2022/10/15 02:31:21;;;;;;;7.60;3.70;;;;;;;5.48;78.18;99407.95;102212;1299;76958;-25
2022/10/15 02:33:49;;;;;;;7.20;3.50;;;;;;;5.53;77.64;99407.71;101984;1290;74180;-25
2022/10/15 02:36:17;;;;;;;9.40;4.00;;;;;;;5.32;77.64;99403.67;102051;1296;61846;-25
2022/10/15 02:38:44;;;;;;;8.10;3.90;;;;;;;5.03;77.73;99403.64;101946;1304;62855;-25
2022/10/15 02:41:11;;;;;;;7.10;3.90;;;;;;;4.75;78.21;99402.84;101958;1302;76402;-25
2022/10/15 02:43:39;;;;;;;5.60;3.40;;;;;;;4.47;78.79;99401.34;102332;1299;76356;-25
2022/10/15 02:46:06;;;;;;;4.70;2.70;;;;;;;4.25;79.49;99399.35;102288;1298;74990;-25
2022/10/15 02:48:35;;;;;;;4.60;2.50;;;;;;;4.60;79.54;99403.80;102128;1294;62877;-25
2022/10/15 02:51:03;;;;;;;6.70;3.40;;;;;;;5.11;78.19;99404.77;102315;1299;62985;-25
2022/10/15 02:53:31;;;;;;;9.70;3.90;;;;;;;5.15;77.69;99405.80;102180;1299;76540;-25
2022/10/15 02:55:58;;;;;;;7.00;4.10;;;;;;;4.94;77.76;99407.03;102328;1299;76685;-25
2022/10/15 02:58:25;;;;;;;18.70;10.20;;;;;;;4.68;78.02;99409.59;102155;1294;75232;-25
2022/10/15 03:00:52;;;;;;;33.20;14.10;;;;;;;4.40;78.38;99405.13;102158;1302;62809;-24
2022/10/15 03:03:20;;;;;;;47.20;20.40;;;;;;;4.13;78.82;99405.27;102339;1298;61557;-23
2022/10/15 03:05:47;;;;;;;31.00;9.20;;;;;;;3.89;79.36;99404.86;102161;1299;76483;-23
2022/10/15 03:08:14;;;;;;;20.90;7.20;;;;;;;4.26;79.36;99402.58;102407;1299;76547;-23
2022/10/15 03:10:41;;;;;;;8.50;5.10;;;;;;;4.81;78.25;99404.25;102093;1302;75238;-23
2022/10/15 03:13:09;;;;;;;12.40;5.40;;;;;;;4.88;77.68;99404.23;102278;1298;62570;-23
2022/10/15 03:15:42;;;;;;;9.80;4.00;;;;;;;4.71;77.67;99408.59;102218;1294;61499;-23
2022/10/15 03:18:10;;;;;;;9.10;4.20;;;;;;;4.47;78.22;99407.55;102295;1302;76397;-23
2022/10/15 03:20:37;;;;;;;13.80;6.90;;;;;;;4.22;78.70;99407.04;102391;1302;77015;-23
2022/10/15 03:23:04;;;;;;;21.30;7.80;;;;;;;3.99;79.22;99407.98;102118;1297;75208;-23
2022/10/15 03:25:31;;;;;;;10.80;4.10;;;;;;;3.84;79.58;99404.05;102290;1294;62763;-23
2022/10/15 03:28:01;;;;;;;9.70;5.40;;;;;;;4.30;79.83;99404.60;102305;1300;61564;-23
2022/10/15 03:30:34;;;;;;;9.80;5.20;;;;;;;4.89;78.43;99404.87;102306;1302;76366;-25
2022/10/15 03:33:02;;;;;;;10.20;4.80;;;;;;;4.97;77.60;99402.23;102261;1294;76656;-24
2022/10/15 03:35:29;;;;;;;5.70;4.50;;;;;;;4.82;77.35;99404.20;102269;1300;73061;-25
2022/10/15 03:37:56;;;;;;;14.20;5.10;;;;;;;4.59;77.76;99400.89;102376;1294;61669;-25
2022/10/15 03:40:23;;;;;;;7.20;4.40;;;;;;;4.35;78.14;99398.16;102264;1293;61804;-24
2022/10/15 03:42:53;;;;;;;6.50;4.10;;;;;;;4.12;78.69;99398.10;102295;1300;76391;-24
2022/10/15 03:45:22;;;;;;;6.40;3.20;;;;;;;3.95;79.23;99400.61;102227;1294;75626;-24
2022/10/15 03:47:57;;;;;;;3.70;2.70;;;;;;;4.45;79.29;99404.56;102133;1294;74951;-24
2022/10/15 03:50:26;;;;;;;7.60;4.20;;;;;;;5.01;77.71;99404.80;102219;1292;62916;-24
2022/10/15 03:52:54;;;;;;;9.70;3.90;;;;;;;5.05;76.94;99401.48;102296;1300;61810;-24
2022/10/15 03:55:21;;;;;;;8.20;3.60;;;;;;;4.85;76.97;99399.09;102314;1294;76375;-24
2022/10/15 03:57:48;;;;;;;7.60;3.60;;;;;;;4.59;77.12;99402.48;102135;1284;75887;-24
2022/10/15 04:00:15;;;;;;;6.80;3.40;;;;;;;4.34;77.69;99401.98;102300;1302;73720;-24
2022/10/15 04:02:46;;;;;;;10.00;3.60;;;;;;;4.10;78.08;99407.63;101955;1298;62325;-24
2022/10/15 04:05:21;;;;;;;7.00;3.60;;;;;;;3.93;78.53;99412.41;102266;1294;62468;-24
2022/10/15 04:07:51;;;;;;;8.70;3.80;;;;;;;4.41;78.62;99411.77;102136;1297;76515;-24
2022/10/15 04:10:19;;;;;;;10.60;5.40;;;;;;;4.99;77.36;99410.91;102274;1299;76307;-24
2022/10/15 04:12:47;;;;;;;12.60;5.90;;;;;;;5.06;76.46;99413.99;102103;1301;73978;-24
2022/10/15 04:15:15;;;;;;;11.40;6.30;;;;;;;4.88;76.27;99413.55;102421;1299;61602;-24
2022/10/15 04:17:48;;;;;;;11.00;5.60;;;;;;;4.61;76.72;99413.70;102381;1299;61817;-24
2022/10/15 04:20:18;;;;;;;7.40;4.80;;;;;;;4.35;76.98;99409.01;102336;1299;76395;-24
2022/10/15 04:22:45;;;;;;;9.60;3.90;;;;;;;4.09;77.38;99405.95;102327;1292;76731;-24
2022/10/15 04:25:13;;;;;;;5.30;2.60;;;;;;;3.91;77.92;99402.73;102258;1294;74687;-24
2022/10/15 04:27:40;;;;;;;7.50;3.30;;;;;;;4.29;78.16;99401.16;102268;1291;61841;-24
2022/10/15 04:30:10;;;;;;;7.60;3.90;;;;;;;4.87;76.78;99402.24;102307;1291;62583;-24
2022/10/15 04:32:40;;;;;;;5.50;3.70;;;;;;;4.94;75.92;99404.81;102148;1301;75217;-24
2022/10/15 04:35:08;;;;;;;5.50;3.70;;;;;;;4.78;75.90;99406.84;102295;1295;75711;-24
2022/10/15 04:37:56;;;;;;;8.30;4.30;;;;;;;4.51;76.42;99408.88;102335;1299;75367;-25
2022/10/15 04:40:23;;;;;;;8.10;4.00;;;;;;;4.27;76.81;99406.32;101946;1297;61851;-24
2022/10/15 04:42:50;;;;;;;9.10;3.60;;;;;;;4.05;77.21;99412.36;102317;1299;62852;-24
2022/10/15 04:45:17;;;;;;;4.20;2.70;;;;;;;3.89;77.83;99410.54;102297;1302;75318;-25
2022/10/15 04:47:45;;;;;;;7.20;3.90;;;;;;;4.35;77.84;99414.70;102338;1292;76265;-24
2022/10/15 04:50:14;;;;;;;12.40;6.00;;;;;;;4.93;76.54;99415.36;102371;1299;74817;-24
2022/10/15 04:53:00;;;;;;;13.70;6.40;;;;;;;4.99;75.67;99414.38;102307;1295;62773;-24
2022/10/15 04:55:29;;;;;;;11.60;6.30;;;;;;;4.82;75.40;99416.98;102169;1301;61873;-24
2022/10/15 04:57:57;;;;;;;20.30;9.20;;;;;;;4.59;75.72;99416.19;102391;1291;76473;-24
2022/10/15 05:00:28;;;;;;;26.90;11.20;;;;;;;4.38;76.17;99416.05;102325;1299;76465;-24
2022/10/15 05:03:18;;;;;;;31.90;12.40;;;;;;;4.18;76.77;99421.00;102329;1291;75445;-24
2022/10/15 05:06:02;;;;;;;20.60;8.30;;;;;;;4.08;77.19;99422.52;102327;1283;62510;-24
2022/10/15 05:08:30;;;;;;;24.20;9.60;;;;;;;4.70;76.94;99420.98;102061;1299;62942;-24
2022/10/15 05:11:06;;;;;;;24.20;10.20;;;;;;;5.36;75.21;99428.39;102181;1297;76399;-24
2022/10/15 05:13:33;;;;;;;15.30;8.40;;;;;;;5.48;74.50;99428.45;102190;1292;75467;-24
2022/10/15 05:16:18;;;;;;;13.10;6.00;;;;;;;5.35;74.13;99429.02;102184;1301;75365;-24
2022/10/15 05:18:47;;;;;;;10.50;5.20;;;;;;;5.10;74.22;99423.06;101936;1299;62732;-24
2022/10/15 05:21:14;;;;;;;6.90;4.10;;;;;;;4.89;74.79;99421.08;102062;1295;61649;-24
2022/10/15 05:23:43;;;;;;;12.00;4.00;;;;;;;4.71;75.02;99421.31;101613;1291;1098734;-25
2022/10/15 05:26:21;;;;;;;8.50;3.70;;;;;;;4.54;75.63;99427.13;102086;1299;76228;-24
2022/10/15 05:28:48;;;;;;;5.10;2.50;;;;;;;4.45;76.08;99426.90;102032;1298;73999;-24
2022/10/15 05:31:24;;;;;;;5.20;3.00;;;;;;;5.05;76.00;99427.63;102227;1299;61667;-24
2022/10/15 05:33:57;;;;;;;7.10;4.40;;;;;;;5.72;74.18;99432.67;102141;1301;62903;-24
2022/10/15 05:36:30;;;;;;;7.50;4.80;;;;;;;5.85;73.10;99428.17;102346;1292;74220;-24
2022/10/15 05:38:58;;;;;;;6.80;4.80;;;;;;;5.74;73.21;99431.39;102134;1301;75628;-24
2022/10/15 05:41:26;;;;;;;6.60;4.30;;;;;;;5.56;73.33;99434.23;102107;1302;73833;-24
2022/10/15 05:43:55;;;;;;;6.40;3.90;;;;;;;5.41;73.70;99432.61;102340;1298;62859;-24
2022/10/15 05:46:24;;;;;;;5.80;3.60;;;;;;;5.28;74.23;99435.02;102032;1291;61636;-24
2022/10/15 05:48:56;;;;;;;6.30;4.00;;;;;;;5.17;74.17;99438.04;102313;1295;76285;-24
2022/10/15 05:51:24;;;;;;;5.20;2.40;;;;;;;5.12;74.82;99439.51;102043;1305;76703;-24
2022/10/15 05:53:54;;;;;;;6.00;2.20;;;;;;;5.70;74.60;99443.83;102173;1291;75063;-24
2022/10/15 05:56:21;;;;;;;9.70;2.90;;;;;;;6.39;73.36;99447.27;102037;1298;61564;-24
2022/10/15 05:58:49;;;;;;;6.10;3.00;;;;;;;6.60;72.59;99447.79;102342;1299;61541;-24
2022/10/15 06:01:16;;;;;;;3.90;2.60;;;;;;;6.52;72.01;99444.38;102328;1297;76278;-24
2022/10/15 06:03:50;;;;;;;3.80;2.20;;;;;;;6.37;71.96;99443.25;102299;1286;75738;-24
2022/10/15 06:06:22;;;;;;;4.90;2.90;;;;;;;6.21;72.37;99442.73;102351;1299;75144;-24
2022/10/15 06:08:50;;;;;;;5.80;2.50;;;;;;;6.10;72.88;99444.20;102017;1302;62867;-24
2022/10/15 06:11:17;;;;;;;3.50;2.60;;;;;;;6.01;73.34;99445.25;102110;1301;62840;-24
2022/10/15 06:13:44;;;;;;;4.70;2.10;;;;;;;5.98;74.09;99452.30;102280;1291;76384;-24
2022/10/15 06:16:12;;;;;;;7.30;2.20;;;;;;;6.51;73.72;99454.68;102346;1283;76587;-24
2022/10/15 06:18:43;;;;;;;4.20;2.40;;;;;;;7.14;72.41;99459.74;102361;1291;75337;-24
2022/10/15 06:21:10;;;;;;;3.20;2.40;;;;;;;7.29;71.38;99460.38;102306;1283;62041;-24
2022/10/15 06:23:37;;;;;;;5.40;2.50;;;;;;;7.23;71.35;99462.32;102049;1298;61826;-24
2022/10/15 06:26:06;;;;;;;7.80;2.50;;;;;;;7.14;71.74;99460.10;102320;1300;76424;-24
2022/10/15 06:28:34;;;;;;;4.40;2.30;;;;;;;7.11;72.38;99462.17;102207;1285;74564;-25
2022/10/15 06:31:01;;;;;;;4.90;2.30;;;;;;;7.11;73.08;99465.27;102379;1291;75060;-24
2022/10/15 06:33:29;;;;;;;7.30;2.80;;;;;;;7.17;72.66;99467.56;102322;1302;62629;-24
2022/10/15 06:36:14;;;;;;;7.70;2.30;;;;;;;7.27;72.64;99465.37;102286;1292;61977;-24
2022/10/15 06:38:43;;;;;;;3.60;2.20;;;;;;;7.97;72.47;99466.75;102023;1297;76360;-24
2022/10/15 06:41:10;;;;;;;6.60;2.50;;;;;;;8.50;70.62;99470.63;102324;1291;76438;-25
2022/10/15 06:43:37;;;;;;;4.50;2.90;;;;;;;8.68;69.52;99468.26;102294;1295;75231;-25
2022/10/15 06:46:04;;;;;;;5.90;2.10;;;;;;;8.68;69.15;99469.78;102185;1302;62908;-24
2022/10/15 06:48:32;;;;;;;5.90;3.30;;;;;;;8.65;68.22;99469.29;102329;1298;62798;-24
2022/10/15 06:51:00;;;;;;;4.90;2.70;;;;;;;8.59;68.48;99468.70;102173;1302;76707;-24
2022/10/15 06:53:27;;;;;;;46.50;6.70;;;;;;;8.62;68.66;99471.73;102090;1301;76973;-24
2022/10/15 06:55:58;;;;;;;7.90;3.80;;;;;;;8.67;68.36;99473.02;102293;1297;75163;-24
2022/10/15 06:58:25;;;;;;;13.30;4.60;;;;;;;8.72;66.86;99469.17;102064;1299;61805;-24
2022/10/15 07:00:52;;;;;;;7.80;3.90;;;;;;;8.78;66.81;99471.55;102219;1299;62597;-24
2022/10/15 07:03:19;;;;;;;7.10;3.80;;;;;;;8.84;67.13;99472.89;102237;1292;76563;-24
2022/10/15 07:05:46;;;;;;;6.50;3.80;;;;;;;8.93;66.55;99476.95;102230;1292;76620;-24
2022/10/15 07:08:13;;;;;;;11.60;3.50;;;;;;;9.04;66.16;99482.30;102048;1292;73931;-25
2022/10/15 07:10:45;;;;;;;5.70;3.70;;;;;;;9.13;65.68;99478.71;102222;1299;61728;-25
2022/10/15 07:13:13;;;;;;;9.10;4.00;;;;;;;9.20;65.37;99484.31;102180;1292;61977;-24
2022/10/15 07:15:40;;;;;;;9.60;4.20;;;;;;;9.28;65.27;99484.27;102319;1300;76340;-24
2022/10/15 07:18:07;;;;;;;7.10;3.80;;;;;;;9.33;65.17;99482.75;102414;1285;75747;-24
2022/10/15 07:20:35;;;;;;;11.10;4.90;;;;;;;9.35;64.34;99479.48;102160;1294;75161;-25
2022/10/15 07:23:02;;;;;;;7.30;4.00;;;;;;;9.44;65.32;99482.19;102187;1299;61865;-25
2022/10/15 07:25:29;;;;;;;4.80;3.10;;;;;;;9.49;63.59;99483.52;102309;1299;62956;-24
2022/10/15 07:27:56;;;;;;;6.30;3.20;;;;;;;9.47;63.29;99482.98;102164;1295;76717;-24
2022/10/15 07:30:26;;;;;;;8.60;1.70;;;;;;;9.54;62.58;99484.27;102306;1299;76059;-25
2022/10/15 07:32:57;;;;;;;6.50;2.00;;;;;;;9.57;62.93;99486.45;102072;1298;73921;-25
2022/10/15 07:35:25;;;;;;;4.70;2.60;;;;;;;9.70;61.53;99486.13;102078;1303;62877;-25
2022/10/15 07:37:53;;;;;;;6.50;2.70;;;;;;;9.71;62.02;99488.04;102075;1291;61838;-24
2022/10/15 07:40:20;;;;;;;11.50;2.60;;;;;;;9.94;61.31;99490.58;102314;1299;76083;-24
2022/10/15 07:42:54;;;;;;;5.10;2.80;;;;;;;10.11;60.82;99491.30;102309;1299;76937;-25
2022/10/15 07:45:22;;;;;;;6.30;2.10;;;;;;;10.23;59.45;99487.45;102058;1301;75159;-25
2022/10/15 07:47:49;;;;;;;4.70;2.40;;;;;;;10.25;58.95;99494.79;102274;1298;62608;-25
2022/10/15 07:50:16;;;;;;;4.90;1.90;;;;;;;10.35;59.35;99492.89;102245;1299;61848;-24
2022/10/15 07:52:45;;;;;;;3.20;2.00;;;;;;;10.46;58.87;99492.95;102255;1294;76604;-24
2022/10/15 07:55:12;;;;;;;4.00;2.70;;;;;;;10.53;58.89;99495.23;102295;1293;76814;-24
2022/10/15 07:57:39;;;;;;;4.00;2.00;;;;;;;10.73;58.82;99493.45;102164;1299;75576;-24
2022/10/15 08:00:07;;;;;;;3.20;2.00;;;;;;;10.75;56.24;99489.63;102167;1297;62565;-25
2022/10/15 08:02:41;;;;;;;8.40;2.60;;;;;;;10.87;58.11;99492.70;102254;1301;62569;-24
2022/10/15 08:05:08;;;;;;;4.70;2.60;;;;;;;11.21;57.79;99498.02;102214;1299;76273;-24
2022/10/15 08:07:36;;;;;;;7.40;2.80;;;;;;;11.34;56.15;99501.11;102070;1299;76787;-24
2022/10/15 08:10:10;;;;;;;4.60;2.20;;;;;;;11.44;56.12;99500.38;101954;1295;75179;-24
2022/10/15 08:12:38;;;;;;;4.70;2.80;;;;;;;11.51;55.84;99501.98;101997;1301;62874;-25
2022/10/15 08:15:06;;;;;;;6.50;2.60;;;;;;;11.61;55.58;99497.84;102405;1299;62751;-24
2022/10/15 08:17:33;;;;;;;4.90;3.20;;;;;;;11.73;55.24;99497.42;102208;1294;75391;-24
2022/10/15 08:20:00;;;;;;;4.50;2.00;;;;;;;11.88;54.84;99499.21;102315;1291;76687;-24
2022/10/15 08:22:27;;;;;;;4.00;2.40;;;;;;;11.98;53.43;99494.94;102244;1299;73900;-24
2022/10/15 08:24:54;;;;;;;4.80;3.00;;;;;;;12.11;54.06;99497.06;102138;1302;62727;-25
2022/10/15 08:27:21;;;;;;;3.70;2.60;;;;;;;12.27;53.43;99495.83;101932;1300;62464;-25
2022/10/15 08:29:49;;;;;;;3.30;2.80;;;;;;;12.28;52.06;99488.77;102268;1299;75157;-25
2022/10/15 08:32:16;;;;;;;8.20;3.40;;;;;;;12.30;52.16;99488.58;102080;1299;76846;-25
2022/10/15 08:34:43;;;;;;;4.60;2.50;;;;;;;12.39;52.44;99493.63;102048;1299;74049;-24
2022/10/15 08:37:11;;;;;;;4.50;2.90;;;;;;;12.75;52.26;99493.27;102016;1294;62828;-25
2022/10/15 08:39:37;;;;;;;5.50;2.90;;;;;;;13.07;52.26;99489.23;102238;1294;62866;-25
2022/10/15 08:42:06;;;;;;;7.10;3.10;;;;;;;13.35;51.26;99495.20;102280;1291;75331;-24
2022/10/15 08:44:43;;;;;;;13.50;3.60;;;;;;;13.48;49.79;99493.05;101957;1299;75853;-25
2022/10/15 08:47:26;;;;;;;6.00;3.10;;;;;;;13.54;50.48;99497.79;102059;1299;74164;-25
2022/10/15 08:49:54;;;;;;;4.00;2.70;;;;;;;14.01;50.09;99497.73;102034;1299;61614;-25
2022/10/15 08:52:45;;;;;;;3.40;2.20;;;;;;;14.15;48.25;99497.34;102029;1295;61689;-25
2022/10/15 08:55:16;;;;;;;7.00;2.70;;;;;;;14.46;47.95;99492.68;102240;1302;75396;-25
2022/10/15 09:05:56;;;;;;;3.60;2.50;;;;;;;15.12;45.97;99498.55;102067;1301;62637;-24
2022/10/15 09:08:29;;;;;;;4.60;2.10;;;;;;;15.27;45.81;99495.13;102021;1294;62113;-24
2022/10/15 09:10:59;;;;;;;27.40;2.90;;;;;;;15.36;45.39;99495.30;101985;1301;75371;-25
2022/10/15 09:13:34;;;;;;;8.50;2.90;;;;;;;15.46;44.72;99497.70;101996;1301;76147;-24
2022/10/15 09:16:24;;;;;;;3.90;2.20;;;;;;;15.42;44.68;99500.02;102305;1294;75438;-25
2022/10/15 09:18:51;;;;;;;4.40;2.50;;;;;;;15.54;44.25;99503.39;102150;1302;63052;-25
2022/10/15 09:21:23;;;;;;;6.10;2.60;;;;;;;15.60;43.43;99501.14;102030;1298;62850;-25
2022/10/15 09:23:54;;;;;;;5.40;2.60;;;;;;;15.27;43.55;99497.01;102017;1292;76245;-25
2022/10/15 09:26:39;;;;;;;4.20;1.70;;;;;;;15.39;44.44;99502.92;102023;1291;76631;-24
2022/10/15 09:29:29;;;;;;;3.80;2.00;;;;;;;15.31;44.03;99500.70;101907;1300;74210;-23
2022/10/15 09:32:02;;;;;;;4.60;1.90;;;;;;;15.25;43.26;99500.33;102260;1299;61570;-24
2022/10/15 09:34:39;;;;;;;3.00;1.90;;;;;;;15.19;43.29;99497.95;102160;1302;62699;-24
2022/10/15 09:37:28;;;;;;;7.00;2.40;;;;;;;15.34;42.82;99497.09;102241;1292;75312;-24
2022/10/15 09:40:34;;;;;;;2.40;2.10;;;;;;;14.96;43.02;99489.24;102192;1292;74901;-24
2022/10/15 09:43:01;;;;;;;2.30;1.80;;;;;;;14.94;43.63;99497.95;101889;1302;74062;-23
2022/10/15 09:45:28;;;;;;;3.00;2.00;;;;;;;14.78;43.55;99500.28;102081;1302;62911;-23
2022/10/15 09:47:59;;;;;;;3.70;1.60;;;;;;;14.81;44.45;99498.27;102270;1298;63060;-25
2022/10/15 09:50:31;;;;;;;4.60;1.90;;;;;;;14.96;44.09;99504.23;102051;1297;76289;-27
2022/10/15 09:53:18;;;;;;;7.20;1.80;;;;;;;15.03;43.55;99507.45;102158;1299;76752;-25
2022/10/15 09:56:07;;;;;;;2.20;1.70;;;;;;;14.93;43.24;99504.31;101979;1305;75057;-27
2022/10/15 09:58:55;;;;;;;3.20;1.80;;;;;;;14.97;43.93;99504.65;102292;1299;63004;-26
2022/10/15 10:01:29;;;;;;;3.20;2.10;;;;;;;15.06;43.34;99502.08;102243;1291;61837;-27
2022/10/15 10:04:19;;;;;;;2.50;1.30;;;;;;;15.05;44.06;99505.34;101999;1301;75034;-25
2022/10/15 10:06:51;;;;;;;5.80;2.00;;;;;;;15.50;42.76;99506.06;101918;1303;74856;-24
2022/10/15 10:09:25;;;;;;;4.10;1.90;;;;;;;15.59;42.24;99499.58;102035;1302;74176;-25
2022/10/15 10:11:58;;;;;;;3.30;2.00;;;;;;;15.63;42.05;99500.48;102079;1299;62781;-24
2022/10/15 10:14:30;;;;;;;6.50;2.30;;;;;;;15.64;41.74;99496.66;101973;1298;61793;-24
2022/10/15 10:17:03;;;;;;;2.50;1.50;;;;;;;15.93;42.54;99502.23;102100;1298;75335;-24
2022/10/15 10:19:30;;;;;;;5.20;1.80;;;;;;;15.87;41.32;99497.88;102277;1297;76805;-24
2022/10/15 10:22:27;;;;;;;2.20;1.50;;;;;;;15.92;41.80;99496.67;102285;1299;73750;-24
2022/10/15 10:24:54;;;;;;;2.20;1.50;;;;;;;16.17;41.49;99497.63;101885;1302;62066;-24
2022/10/15 10:27:26;;;;;;;2.90;1.30;;;;;;;15.93;41.01;99498.83;102169;1291;61905;-24
2022/10/15 10:30:01;;;;;;;3.10;1.80;;;;;;;16.13;41.58;99504.46;102125;1300;74238;-24
2022/10/15 10:32:32;;;;;;;2.00;1.20;;;;;;;16.22;40.65;99498.99;102001;1297;76003;-24
2022/10/15 10:35:00;;;;;;;1.70;1.40;;;;;;;16.14;40.85;99495.99;102161;1302;73957;-24
2022/10/15 10:37:28;;;;;;;1.60;1.50;;;;;;;15.81;41.56;99494.59;102088;1299;61854;-24
2022/10/15 10:39:57;;;;;;;1.30;1.00;;;;;;;15.81;41.07;99496.01;102318;1299;63184;-24
2022/10/15 10:42:25;;;;;;;2.70;1.60;;;;;;;16.01;41.21;99500.54;102182;1301;75759;-24
2022/10/15 10:44:53;;;;;;;2.90;1.40;;;;;;;16.20;41.39;99501.52;102189;1299;76734;-24
2022/10/15 10:47:24;;;;;;;3.50;1.60;;;;;;;16.25;41.27;99494.68;102312;1297;75331;-24
2022/10/15 10:49:57;;;;;;;2.40;1.40;;;;;;;16.50;40.78;99493.15;102016;1299;61180;-24
2022/10/15 10:52:35;;;;;;;3.50;1.80;;;;;;;16.50;40.92;99494.42;102253;1291;62920;-24
2022/10/15 10:55:12;;;;;;;1.60;1.20;;;;;;;16.64;40.18;99488.84;101959;1298;76094;-24
2022/10/15 10:57:48;;;;;;;5.90;2.50;;;;;;;16.71;41.03;99488.33;101989;1297;76164;-24
2022/10/15 11:00:19;;;;;;;10.50;2.10;;;;;;;16.98;40.52;99484.15;101948;1302;75279;-24
2022/10/15 11:02:48;;;;;;;3.90;1.80;;;;;;;16.92;40.02;99482.28;102036;1302;62711;-24
2022/10/15 11:05:18;;;;;;;4.60;1.90;;;;;;;17.11;40.40;99476.95;102008;1301;63025;-24
2022/10/15 11:07:57;;;;;;;4.10;1.30;;;;;;;17.07;40.47;99481.92;102021;1300;75360;-24
2022/10/15 11:10:32;;;;;;;2.70;1.30;;;;;;;17.01;39.09;99479.30;102036;1299;76735;-24
2022/10/15 11:13:24;;;;;;;2.30;1.40;;;;;;;16.64;39.95;99477.80;102017;1302;74978;-24
2022/10/15 11:16:02;;;;;;;2.40;1.30;;;;;;;16.86;40.96;99476.79;102262;1299;61953;-24
2022/10/15 11:19:17;;;;;;;5.10;2.00;;;;;;;17.03;39.66;99476.88;102013;1301;62866;-24
2022/10/15 11:22:31;;;;;;;2.00;1.20;;;;;;;16.97;39.68;99474.66;101929;1296;75682;-24
2022/10/15 11:25:47;;;;;;;2.80;2.00;;;;;;;16.69;39.81;99477.74;101956;1291;75883;-24
2022/10/15 11:28:54;;;;;;;3.00;1.10;;;;;;;16.91;40.38;99474.06;102184;1302;75383;-24
2022/10/15 11:31:30;;;;;;;4.20;1.50;;;;;;;16.68;39.57;99475.63;102202;1298;62940;-24
2022/10/15 11:34:40;;;;;;;1.70;1.30;;;;;;;16.55;40.61;99473.05;102039;1299;61849;-24
2022/10/15 11:37:42;;;;;;;3.10;1.50;;;;;;;16.51;40.41;99473.24;102261;1299;76337;-24
2022/10/15 11:40:31;;;;;;;5.50;2.30;;;;;;;16.57;40.26;99466.85;102349;1300;76771;-24
2022/10/15 11:43:00;;;;;;;6.30;1.40;;;;;;;16.32;40.18;99464.95;102306;1299;74930;-24
2022/10/15 11:46:12;;;;;;;2.80;1.40;;;;;;;16.21;41.12;99470.23;101973;1299;61811;-24
2022/10/15 11:48:44;;;;;;;2.40;1.30;;;;;;;16.41;41.56;99468.13;102171;1298;61769;-24
2022/10/15 11:51:21;;;;;;;5.40;1.90;;;;;;;16.34;40.55;99468.22;102356;1292;76610;-24
2022/10/15 11:54:27;;;;;;;2.30;1.30;;;;;;;16.00;40.36;99461.73;102054;1299;75670;-24
2022/10/15 11:56:56;;;;;;;2.70;1.50;;;;;;;16.01;42.16;99468.48;102297;1298;75130;-24
2022/10/15 11:59:43;;;;;;;3.00;1.20;;;;;;;16.13;40.79;99461.71;102018;1299;62859;-24
2022/10/15 12:02:19;;;;;;;2.30;1.70;;;;;;;15.95;41.79;99463.67;102081;1299;62253;-24